Time;durP1;ratioP1;P1;durP2;ratioP2;P2;SDS_P1;SDS_P2;PMS_P1;PMS_P2;Temp;Humidity;BMP_temperature;BMP_pressure;BME280_temperature;BME280_humidity;BME280_pressure;Samples;Min_cycle;Max_cycle;Signal;HPM_P1;HPM_P2
2023/03/04 00:00:05;;;;;;;9.17;4.63;;;7.90;91.60;;;;;;4880910;29;20298;-63
2023/03/04 00:02:37;;;;;;;10.67;4.33;;;7.90;91.80;;;;;;4896569;29;20195;-63
2023/03/04 00:05:05;;;;;;;6.00;4.40;;;7.90;91.90;;;;;;4897740;29;20255;-62
2023/03/04 00:07:33;;;;;;;6.60;4.07;;;7.90;92.10;;;;;;4895383;29;20196;-63
2023/03/04 00:10:00;;;;;;;13.17;4.57;;;7.90;92.10;;;;;;4897622;29;20207;-62
2023/03/04 00:12:27;;;;;;;14.67;4.73;;;7.90;92.10;;;;;;4897181;29;20662;-62
2023/03/04 00:14:54;;;;;;;11.20;4.67;;;7.90;92.40;;;;;;4897625;29;20247;-62
2023/03/04 00:17:24;;;;;;;11.23;4.90;;;7.90;92.50;;;;;;4895787;29;20267;-62
2023/03/04 00:19:51;;;;;;;8.07;3.83;;;7.90;92.90;;;;;;4897222;29;20211;-62
2023/03/04 00:22:18;;;;;;;9.87;4.07;;;7.90;92.70;;;;;;4895129;29;20200;-62
2023/03/04 00:24:46;;;;;;;9.23;4.03;;;7.90;92.70;;;;;;4897309;29;20259;-62
2023/03/04 00:27:13;;;;;;;7.50;3.53;;;7.90;92.80;;;;;;4896597;29;20207;-62
2023/03/04 00:29:40;;;;;;;10.27;3.90;;;8.00;92.80;;;;;;4897258;29;20207;-63
2023/03/04 00:32:08;;;;;;;7.90;3.73;;;8.00;92.80;;;;;;4878325;29;20212;-63
2023/03/04 00:34:35;;;;;;;11.20;4.00;;;8.00;92.80;;;;;;4897080;29;20609;-63
2023/03/04 00:37:02;;;;;;;10.43;4.27;;;8.00;92.90;;;;;;4894571;29;20226;-62
2023/03/04 00:39:30;;;;;;;11.67;4.50;;;8.00;93.00;;;;;;4896834;29;20235;-62
2023/03/04 00:41:58;;;;;;;7.27;4.17;;;8.00;93.00;;;;;;4896440;29;20200;-63
2023/03/04 00:44:25;;;;;;;10.93;4.27;;;8.00;93.10;;;;;;4879631;29;20545;-63
2023/03/04 00:46:52;;;;;;;4.80;3.30;;;8.00;93.10;;;;;;4895847;29;20215;-63
2023/03/04 00:49:20;;;;;;;7.13;3.40;;;8.00;93.00;;;;;;4896754;29;20191;-62
2023/03/04 00:51:47;;;;;;;9.73;3.70;;;8.10;93.10;;;;;;4894761;29;20239;-62
2023/03/04 00:54:14;;;;;;;4.57;2.93;;;8.10;93.10;;;;;;4879845;29;20204;-62
2023/03/04 00:56:41;;;;;;;7.47;3.40;;;8.00;93.00;;;;;;4888564;29;20230;-62
2023/03/04 00:59:09;;;;;;;7.57;3.60;;;8.10;93.00;;;;;;4896451;29;20195;-62
2023/03/04 01:01:36;;;;;;;5.53;3.10;;;8.10;93.00;;;;;;4879495;29;20204;-63
2023/03/04 01:04:04;;;;;;;8.27;3.60;;;8.10;93.00;;;;;;4895693;29;20203;-63
2023/03/04 01:06:31;;;;;;;10.20;3.80;;;8.00;93.00;;;;;;4895387;29;20203;-63
2023/03/04 01:08:58;;;;;;;10.53;4.20;;;8.00;93.10;;;;;;4878486;29;20257;-63
2023/03/04 01:11:25;;;;;;;9.53;3.80;;;8.00;93.30;;;;;;4877464;29;20737;-63
2023/03/04 01:13:52;;;;;;;11.43;3.80;;;8.00;93.40;;;;;;4876067;29;20208;-63
2023/03/04 01:16:21;;;;;;;7.23;3.07;;;7.90;93.80;;;;;;4877409;29;20196;-63
2023/03/04 01:18:48;;;;;;;12.57;3.27;;;7.90;93.50;;;;;;4875007;29;20231;-61
2023/03/04 01:21:15;;;;;;;10.87;4.60;;;7.90;93.60;;;;;;4876663;29;20204;-62
2023/03/04 01:23:43;;;;;;;7.93;3.07;;;7.90;93.70;;;;;;4876622;29;20627;-63
2023/03/04 01:26:10;;;;;;;13.30;4.17;;;7.90;93.90;;;;;;4877231;29;20210;-63
2023/03/04 01:28:37;;;;;;;11.60;3.70;;;7.80;93.90;;;;;;4878287;29;20219;-63
2023/03/04 01:31:06;;;;;;;8.07;3.10;;;7.80;94.10;;;;;;4894517;29;20286;-63
2023/03/04 01:33:35;;;;;;;11.17;3.47;;;7.80;94.20;;;;;;4894686;29;20222;-62
2023/03/04 01:36:03;;;;;;;7.63;3.17;;;7.80;94.30;;;;;;4894957;29;20227;-62
2023/03/04 01:38:31;;;;;;;11.20;3.83;;;7.80;94.40;;;;;;4894421;29;20239;-62
2023/03/04 01:40:58;;;;;;;8.33;3.60;;;7.80;94.40;;;;;;4895673;29;20697;-63
2023/03/04 01:43:28;;;;;;;7.60;3.50;;;7.80;94.50;;;;;;4895599;29;20210;-63
2023/03/04 01:45:56;;;;;;;9.70;3.67;;;7.80;94.60;;;;;;4895605;29;20197;-62
2023/03/04 01:48:26;;;;;;;11.23;3.40;;;7.80;94.90;;;;;;4893727;29;20230;-63
2023/03/04 01:50:55;;;;;;;8.20;3.30;;;7.80;94.60;;;;;;4894998;29;20191;-62
2023/03/04 01:53:25;;;;;;;13.80;3.93;;;7.80;94.60;;;;;;4894371;29;20214;-64
2023/03/04 01:55:54;;;;;;;5.97;2.77;;;7.80;94.70;;;;;;4895660;29;20180;-62
2023/03/04 01:58:21;;;;;;;9.27;3.10;;;7.80;94.60;;;;;;4895251;29;20246;-63
2023/03/04 02:00:48;;;;;;;4.77;2.77;;;7.80;94.60;;;;;;4894936;29;20232;-62
2023/03/04 02:03:19;;;;;;;5.93;2.53;;;7.90;94.60;;;;;;4894321;29;20223;-62
2023/03/04 02:05:49;;;;;;;9.77;3.07;;;7.90;94.50;;;;;;4895157;29;20420;-62
2023/03/04 02:08:23;;;;;;;7.60;3.40;;;7.90;94.50;;;;;;4886493;29;20307;-62
2023/03/04 02:10:51;;;;;;;8.03;2.70;;;8.00;94.40;;;;;;4875266;29;20233;-62
2023/03/04 02:13:19;;;;;;;12.07;3.20;;;8.00;94.30;;;;;;4876403;29;20261;-63
2023/03/04 02:15:46;;;;;;;10.67;3.20;;;8.00;94.30;;;;;;4875450;29;20299;-62
2023/03/04 02:18:16;;;;;;;7.10;2.80;;;7.90;94.20;;;;;;4876009;29;20613;-62
2023/03/04 02:20:52;;;;;;;5.60;2.40;;;7.90;94.20;;;;;;4859449;29;20687;-63
2023/03/04 02:23:25;;;;;;;5.73;2.63;;;7.90;94.20;;;;;;4880125;29;20190;-63
2023/03/04 02:26:14;;;;;;;5.97;2.30;;;8.00;94.10;;;;;;4895288;29;20173;-63
2023/03/04 02:28:43;;;;;;;6.73;2.10;;;8.00;94.00;;;;;;4894838;29;20199;-63
2023/03/04 02:31:23;;;;;;;10.50;2.80;;;8.00;93.90;;;;;;4895263;29;20531;-63
2023/03/04 02:33:51;;;;;;;6.47;2.50;;;8.00;93.90;;;;;;4877299;29;20647;-63
2023/03/04 02:36:18;;;;;;;8.57;2.50;;;7.90;93.80;;;;;;4894505;29;20770;-62
2023/03/04 02:38:45;;;;;;;5.23;2.33;;;7.90;93.80;;;;;;4877047;29;20263;-63
2023/03/04 02:41:14;;;;;;;7.10;1.97;;;7.90;93.80;;;;;;4894935;29;20191;-62
2023/03/04 02:43:44;;;;;;;10.23;2.50;;;8.00;93.70;;;;;;4895147;29;20205;-63
2023/03/04 02:46:12;;;;;;;12.47;2.97;;;7.90;93.60;;;;;;4894886;29;20616;-63
2023/03/04 02:48:40;;;;;;;6.17;2.40;;;8.00;93.60;;;;;;4877571;29;20204;-63
2023/03/04 02:51:07;;;;;;;7.10;2.43;;;8.00;93.60;;;;;;4877680;29;20218;-62
2023/03/04 02:53:37;;;;;;;8.17;2.50;;;8.00;93.60;;;;;;4877401;29;20219;-63
2023/03/04 02:56:05;;;;;;;8.70;2.63;;;7.90;93.60;;;;;;4878553;29;20203;-63
2023/03/04 02:58:37;;;;;;;2.57;1.80;;;7.90;93.50;;;;;;4877245;29;20218;-63
2023/03/04 03:01:06;;;;;;;6.13;2.07;;;7.90;93.50;;;;;;4877949;29;20575;-63
2023/03/04 03:03:34;;;;;;;9.03;2.13;;;7.90;93.50;;;;;;4876901;29;20201;-63
2023/03/04 03:06:01;;;;;;;5.60;2.10;;;8.00;93.50;;;;;;4893610;29;20222;-63
2023/03/04 03:08:28;;;;;;;7.47;2.07;;;8.00;93.50;;;;;;4876669;29;20245;-64
2023/03/04 03:10:55;;;;;;;11.47;2.50;;;8.00;93.50;;;;;;4894633;29;20291;-63
2023/03/04 03:13:24;;;;;;;8.63;2.67;;;8.00;93.50;;;;;;4880872;29;20211;-63
2023/03/04 03:15:52;;;;;;;5.33;1.80;;;8.00;93.80;;;;;;4881776;29;20218;-63
2023/03/04 03:18:21;;;;;;;7.03;1.90;;;8.00;93.50;;;;;;4880190;29;20687;-63
2023/03/04 03:20:48;;;;;;;9.90;2.00;;;8.00;93.50;;;;;;4894862;29;20215;-63
2023/03/04 03:23:16;;;;;;;5.50;1.97;;;8.00;93.50;;;;;;4879880;29;20199;-62
2023/03/04 03:25:44;;;;;;;5.90;2.17;;;7.90;93.50;;;;;;4881229;29;20222;-63
2023/03/04 03:28:11;;;;;;;4.97;1.70;;;8.00;93.50;;;;;;4880743;29;20207;-63
2023/03/04 03:30:38;;;;;;;4.67;1.67;;;7.90;93.50;;;;;;4881347;29;20199;-62
2023/03/04 03:33:08;;;;;;;7.13;2.03;;;7.90;93.60;;;;;;4897094;29;20230;-61
2023/03/04 03:35:38;;;;;;;5.20;2.00;;;7.80;93.50;;;;;;4880850;29;20223;-63
2023/03/04 03:38:05;;;;;;;3.60;1.80;;;7.80;93.60;;;;;;4896145;29;20261;-63
2023/03/04 03:40:32;;;;;;;6.47;1.97;;;7.80;93.60;;;;;;4890547;29;20233;-61
2023/03/04 03:42:59;;;;;;;7.60;1.97;;;7.80;93.60;;;;;;4896234;29;20196;-63
2023/03/04 03:45:26;;;;;;;9.07;2.07;;;7.80;93.60;;;;;;4880630;29;20191;-63
2023/03/04 03:47:53;;;;;;;3.63;1.47;;;7.80;93.60;;;;;;4879940;29;20268;-63
2023/03/04 03:50:23;;;;;;;4.33;1.77;;;7.80;93.60;;;;;;4897850;29;20195;-63
2023/03/04 03:52:52;;;;;;;6.17;1.80;;;7.80;93.60;;;;;;4878547;29;20219;-63
2023/03/04 03:55:19;;;;;;;6.90;2.00;;;7.80;93.60;;;;;;4897977;29;20191;-63
2023/03/04 03:57:46;;;;;;;6.17;2.00;;;7.80;93.60;;;;;;4896814;29;20203;-63
2023/03/04 04:00:15;;;;;;;5.27;2.00;;;7.80;93.70;;;;;;4878634;29;20215;-62
2023/03/04 04:02:42;;;;;;;4.40;1.53;;;7.80;93.60;;;;;;4877381;29;20200;-62
2023/03/04 04:05:10;;;;;;;3.57;1.77;;;7.80;93.60;;;;;;4879116;29;20199;-62
2023/03/04 04:07:38;;;;;;;4.03;1.80;;;7.80;93.50;;;;;;4876387;29;20257;-62
2023/03/04 04:10:07;;;;;;;4.07;1.80;;;7.80;93.60;;;;;;4862226;29;20208;-62
2023/03/04 04:12:34;;;;;;;5.00;1.53;;;7.80;93.60;;;;;;4880247;29;20264;-64
2023/03/04 04:15:02;;;;;;;4.03;1.50;;;7.80;93.60;;;;;;4897535;29;20282;-63
2023/03/04 04:17:29;;;;;;;6.03;2.20;;;7.80;93.60;;;;;;4896311;29;20213;-62
2023/03/04 04:19:56;;;;;;;4.93;1.67;;;7.80;93.60;;;;;;4884643;29;20208;-64
2023/03/04 04:22:23;;;;;;;3.80;1.60;;;7.70;93.50;;;;;;4875934;29;20280;-63
2023/03/04 04:24:50;;;;;;;5.50;1.33;;;7.70;93.50;;;;;;4876347;29;20259;-62
2023/03/04 04:27:19;;;;;;;3.60;1.93;;;7.70;93.50;;;;;;4872069;29;20548;-64
2023/03/04 04:29:46;;;;;;;3.23;1.37;;;7.60;93.50;;;;;;4894883;29;20199;-63
2023/03/04 04:32:13;;;;;;;5.97;1.80;;;7.60;93.50;;;;;;4895367;29;20206;-62
2023/03/04 04:34:40;;;;;;;6.47;1.70;;;7.60;93.50;;;;;;4897184;29;20214;-62
2023/03/04 04:37:09;;;;;;;8.27;1.83;;;7.60;93.50;;;;;;4894992;29;20573;-64
2023/03/04 04:39:37;;;;;;;7.27;1.60;;;7.50;93.50;;;;;;4896194;29;20227;-63
2023/03/04 04:42:04;;;;;;;3.50;1.50;;;7.50;93.50;;;;;;4896031;29;20667;-62
2023/03/04 04:44:32;;;;;;;2.07;1.23;;;7.60;93.50;;;;;;4896831;29;20199;-63
2023/03/04 04:47:00;;;;;;;2.90;1.40;;;7.60;93.50;;;;;;4895730;29;20643;-63
2023/03/04 04:49:27;;;;;;;4.77;2.00;;;7.60;93.50;;;;;;4879717;29;20730;-62
2023/03/04 04:51:54;;;;;;;5.70;1.67;;;7.60;93.50;;;;;;4877924;29;20671;-63
2023/03/04 04:54:21;;;;;;;2.40;1.40;;;7.60;93.60;;;;;;4896227;29;20552;-63
2023/03/04 04:56:48;;;;;;;4.17;1.70;;;7.60;93.60;;;;;;4891430;29;20207;-63
2023/03/04 04:59:15;;;;;;;4.30;1.57;;;7.60;93.60;;;;;;4861062;29;20230;-62
2023/03/04 05:01:44;;;;;;;5.77;1.80;;;7.60;93.60;;;;;;4876001;29;20214;-63
2023/03/04 05:04:11;;;;;;;5.87;1.77;;;7.50;93.60;;;;;;4876943;29;20201;-63
2023/03/04 05:06:38;;;;;;;6.80;2.00;;;7.50;93.60;;;;;;4875962;29;20207;-61
2023/03/04 05:09:06;;;;;;;8.33;2.13;;;7.60;93.70;;;;;;4876274;29;20207;-63
2023/03/04 05:11:33;;;;;;;4.37;1.63;;;7.50;93.50;;;;;;4887126;29;20239;-62
2023/03/04 05:14:00;;;;;;;3.00;1.40;;;7.60;93.50;;;;;;4895667;29;20297;-63
2023/03/04 05:16:28;;;;;;;5.03;2.20;;;7.60;93.40;;;;;;4896297;29;20207;-63
2023/03/04 05:18:56;;;;;;;9.33;2.20;;;7.60;93.40;;;;;;4878239;29;20203;-63
2023/03/04 05:21:23;;;;;;;3.53;1.53;;;7.60;93.40;;;;;;4895916;29;20202;-63
2023/03/04 05:23:53;;;;;;;5.60;2.00;;;7.60;93.40;;;;;;4894286;29;20869;-63
2023/03/04 05:26:20;;;;;;;4.10;1.27;;;7.60;93.40;;;;;;4879097;29;20199;-63
2023/03/04 05:28:48;;;;;;;5.27;1.77;;;7.60;93.40;;;;;;4895979;29;20647;-62
2023/03/04 05:31:18;;;;;;;3.13;1.50;;;7.60;93.50;;;;;;4879162;29;20297;-64
2023/03/04 05:33:45;;;;;;;4.47;2.00;;;7.70;93.50;;;;;;4894374;29;20222;-63
2023/03/04 05:36:13;;;;;;;7.27;1.77;;;7.60;93.50;;;;;;4894869;29;20222;-63
2023/03/04 05:38:41;;;;;;;5.00;1.60;;;7.70;93.40;;;;;;4893644;29;20238;-63
2023/03/04 05:41:08;;;;;;;1.40;1.00;;;7.70;93.40;;;;;;4895982;29;20254;-64
2023/03/04 05:43:37;;;;;;;6.53;1.53;;;7.70;93.40;;;;;;4895169;29;20202;-64
2023/03/04 05:46:05;;;;;;;4.97;1.57;;;7.70;93.30;;;;;;4893048;29;20199;-63
2023/03/04 05:48:32;;;;;;;5.20;1.60;;;7.70;93.30;;;;;;4894870;29;20195;-63
2023/03/04 05:51:06;;;;;;;3.57;1.73;;;7.70;93.20;;;;;;4895172;29;20227;-63
2023/03/04 05:53:35;;;;;;;2.40;1.23;;;7.70;93.30;;;;;;4876751;29;20233;-63
2023/03/04 05:56:07;;;;;;;4.13;1.43;;;7.70;93.10;;;;;;4895394;29;20379;-64
2023/03/04 05:58:34;;;;;;;3.33;1.20;;;7.70;93.10;;;;;;4894813;29;20192;-63
2023/03/04 06:01:02;;;;;;;2.60;1.40;;;7.80;93.10;;;;;;4895168;29;20198;-63
2023/03/04 06:03:29;;;;;;;4.90;1.83;;;7.80;93.00;;;;;;4894654;29;20199;-63
2023/03/04 06:05:56;;;;;;;3.20;1.50;;;7.80;92.90;;;;;;4894994;29;20207;-63
2023/03/04 06:08:24;;;;;;;3.10;1.77;;;7.60;97.20;;;;;;4876858;29;20626;-64
2023/03/04 06:10:56;;;;;;;4.30;1.57;;;7.80;92.90;;;;;;4895578;29;20214;-63
2023/03/04 06:13:26;;;;;;;6.93;1.60;;;7.80;92.80;;;;;;4894757;29;20215;-62
2023/03/04 06:15:58;;;;;;;2.60;1.60;;;7.80;93.00;;;;;;4894379;29;20203;-62
2023/03/04 06:18:28;;;;;;;3.30;1.23;;;7.80;92.70;;;;;;4894199;29;20274;-62
2023/03/04 06:20:58;;;;;;;3.10;1.60;;;7.80;92.60;;;;;;4894414;29;20596;-62
2023/03/04 06:23:26;;;;;;;5.97;1.40;;;7.70;92.50;;;;;;4891033;29;20275;-63
2023/03/04 06:25:56;;;;;;;2.83;1.30;;;7.70;92.50;;;;;;4892707;29;20202;-63
2023/03/04 06:28:24;;;;;;;1.60;1.30;;;7.70;92.50;;;;;;4892439;29;20200;-63
2023/03/04 06:30:52;;;;;;;4.50;1.43;;;7.70;92.50;;;;;;4894506;29;20695;-62
2023/03/04 06:33:20;;;;;;;7.57;1.60;;;7.80;92.50;;;;;;4893553;29;20557;-62
2023/03/04 06:35:47;;;;;;;3.30;1.43;;;7.80;92.40;;;;;;4895099;29;20196;-62
2023/03/04 06:38:14;;;;;;;3.03;1.40;;;7.80;92.30;;;;;;4892892;29;20322;-64
2023/03/04 06:40:44;;;;;;;3.87;1.67;;;7.80;92.20;;;;;;4887443;29;20236;-64
2023/03/04 06:43:13;;;;;;;3.03;1.50;;;7.80;92.10;;;;;;4895033;29;20194;-64
2023/03/04 06:45:40;;;;;;;2.00;1.10;;;7.80;92.10;;;;;;4895460;29;20251;-63
2023/03/04 06:48:07;;;;;;;2.23;1.17;;;7.80;92.00;;;;;;4897421;29;20202;-63
2023/03/04 06:50:36;;;;;;;3.43;1.53;;;7.80;91.90;;;;;;4898612;29;20207;-63
2023/03/04 06:53:03;;;;;;;2.00;1.37;;;7.90;91.80;;;;;;4895707;29;20211;-63
2023/03/04 06:55:31;;;;;;;2.73;1.20;;;7.90;91.70;;;;;;4898440;29;20624;-63
2023/03/04 06:57:58;;;;;;;4.13;1.87;;;7.90;91.50;;;;;;4898247;29;20271;-63
2023/03/04 07:00:26;;;;;;;4.57;1.73;;;7.90;91.30;;;;;;4894018;29;20272;-63
2023/03/04 07:02:53;;;;;;;3.13;1.73;;;7.90;91.10;;;;;;4878718;29;20708;-63
2023/03/04 07:05:20;;;;;;;4.17;1.80;;;7.90;91.10;;;;;;4880107;29;20556;-63
2023/03/04 07:07:48;;;;;;;3.47;1.57;;;7.90;91.00;;;;;;4880188;29;20223;-63
2023/03/04 07:10:17;;;;;;;1.93;1.13;;;8.00;90.80;;;;;;4898285;29;20284;-63
2023/03/04 07:12:44;;;;;;;2.27;1.63;;;8.00;90.70;;;;;;4898244;29;20236;-63
2023/03/04 07:15:12;;;;;;;2.43;1.20;;;8.10;90.50;;;;;;4898411;29;20668;-63
2023/03/04 07:17:41;;;;;;;2.60;1.40;;;8.00;90.40;;;;;;4897590;29;20230;-63
2023/03/04 07:20:10;;;;;;;3.33;1.50;;;8.00;90.20;;;;;;4897960;29;20263;-63
2023/03/04 07:22:40;;;;;;;2.50;1.07;;;7.90;90.10;;;;;;4897103;29;20202;-62
2023/03/04 07:25:08;;;;;;;1.33;0.80;;;8.10;90.10;;;;;;4910087;29;20188;-63
2023/03/04 07:27:37;;;;;;;2.37;1.10;;;8.10;89.80;;;;;;4917128;29;20200;-63
2023/03/04 07:30:05;;;;;;;2.03;1.00;;;8.10;89.60;;;;;;4866793;29;20559;-63
2023/03/04 07:32:33;;;;;;;1.27;1.17;;;8.10;88.60;;;;;;4897117;29;20207;-63
2023/03/04 07:35:02;;;;;;;1.10;1.00;;;8.10;88.40;;;;;;4898208;29;20293;-63
2023/03/04 07:37:30;;;;;;;1.87;1.20;;;8.20;88.30;;;;;;4896814;29;20241;-63
2023/03/04 07:39:57;;;;;;;2.63;1.30;;;8.20;87.40;;;;;;4896873;29;20671;-63
2023/03/04 07:42:24;;;;;;;2.00;1.17;;;8.30;87.00;;;;;;4897790;29;20199;-63
2023/03/04 07:45:00;;;;;;;3.90;1.50;;;8.30;86.90;;;;;;4880147;29;20663;-63
2023/03/04 07:47:27;;;;;;;3.67;1.60;;;8.30;86.50;;;;;;4896996;29;20199;-62
2023/03/04 07:49:55;;;;;;;3.37;1.53;;;8.30;85.90;;;;;;4897816;29;20648;-62
2023/03/04 07:52:23;;;;;;;2.37;1.17;;;8.30;85.50;;;;;;4879693;29;20233;-62
2023/03/04 07:54:50;;;;;;;1.03;0.90;;;8.30;85.10;;;;;;4896388;29;20210;-64
2023/03/04 07:57:17;;;;;;;2.63;1.33;;;8.30;85.00;;;;;;4896762;29;20563;-62
2023/03/04 07:59:44;;;;;;;2.23;1.50;;;8.40;84.30;;;;;;4880178;29;20381;-62
2023/03/04 08:02:12;;;;;;;3.63;1.63;;;8.40;82.90;;;;;;4896587;29;20669;-63
2023/03/04 08:04:39;;;;;;;0.90;0.90;;;8.40;81.90;;;;;;4896946;29;20228;-63
2023/03/04 08:07:06;;;;;;;2.00;1.10;;;8.40;81.70;;;;;;4896550;29;20801;-63
2023/03/04 08:09:34;;;;;;;2.53;1.03;;;8.40;80.90;;;;;;4896211;29;20203;-63
2023/03/04 08:12:02;;;;;;;1.80;1.00;;;8.40;80.70;;;;;;4880230;29;20207;-62
2023/03/04 08:14:29;;;;;;;1.20;1.10;;;8.40;80.00;;;;;;4880381;29;20215;-62
2023/03/04 08:16:56;;;;;;;4.03;0.97;;;8.40;78.40;;;;;;4896899;29;20226;-63
2023/03/04 08:19:23;;;;;;;3.03;1.10;;;8.40;75.10;;;;;;4879838;29;20692;-63
2023/03/04 08:21:50;;;;;;;1.00;0.80;;;8.30;71.90;;;;;;4896091;29;20684;-62
2023/03/04 08:24:17;;;;;;;4.00;0.87;;;8.30;71.50;;;;;;4896032;29;20203;-63
2023/03/04 08:26:50;;;;;;;3.90;0.90;;;8.30;67.50;;;;;;4895032;29;20219;-63
2023/03/04 08:29:19;;;;;;;1.23;0.90;;;8.30;65.70;;;;;;4896398;29;20191;-64
2023/03/04 08:31:46;;;;;;;0.67;0.63;;;8.20;64.50;;;;;;4896861;29;20655;-63
2023/03/04 08:34:14;;;;;;;0.87;0.80;;;8.20;61.80;;;;;;4895401;29;20648;-63
2023/03/04 08:36:42;;;;;;;1.57;0.50;;;8.10;61.30;;;;;;4896592;29;20716;-63
2023/03/04 08:39:11;;;;;;;1.43;1.00;;;8.20;61.20;;;;;;4877614;29;20277;-63
2023/03/04 08:41:39;;;;;;;2.23;1.03;;;8.20;59.70;;;;;;4896332;29;20231;-64
2023/03/04 08:44:09;;;;;;;3.93;1.00;;;8.10;58.50;;;;;;4879445;29;20207;-63
2023/03/04 08:46:36;;;;;;;1.27;0.60;;;8.10;58.10;;;;;;4896962;29;20214;-63
2023/03/04 08:49:04;;;;;;;1.50;0.60;;;8.10;58.00;;;;;;4895933;29;20294;-64
2023/03/04 08:51:31;;;;;;;0.60;0.60;;;8.10;57.40;;;;;;4896610;29;20207;-63
2023/03/04 08:53:58;;;;;;;0.80;0.80;;;8.10;58.10;;;;;;4877352;29;20552;-63
2023/03/04 08:56:25;;;;;;;0.97;0.80;;;8.20;58.20;;;;;;4896755;29;20215;-62
2023/03/04 08:58:52;;;;;;;1.70;0.80;;;8.10;56.10;;;;;;4896380;29;20802;-64
2023/03/04 09:01:21;;;;;;;1.20;0.80;;;8.10;55.60;;;;;;4896178;29;20226;-63
2023/03/04 09:03:48;;;;;;;1.87;0.80;;;8.10;55.40;;;;;;4895193;29;20203;-62
2023/03/04 09:06:16;;;;;;;4.00;1.07;;;8.10;54.40;;;;;;4896134;29;20191;-64
2023/03/04 09:08:44;;;;;;;2.30;0.83;;;8.00;54.30;;;;;;4893964;29;20205;-62
2023/03/04 09:11:12;;;;;;;1.37;1.10;;;8.00;54.70;;;;;;4895707;29;20203;-62
2023/03/04 09:13:39;;;;;;;0.83;0.80;;;8.10;54.80;;;;;;4895783;29;20306;-63
2023/03/04 09:16:11;;;;;;;1.63;0.97;;;8.10;55.30;;;;;;4895950;29;20479;-63
2023/03/04 09:18:43;;;;;;;1.20;0.97;;;8.10;55.00;;;;;;4877259;29;20672;-64
2023/03/04 09:21:10;;;;;;;0.83;0.83;;;8.10;53.80;;;;;;4896023;29;20186;-63
2023/03/04 09:23:39;;;;;;;1.83;0.83;;;8.10;52.90;;;;;;4894207;29;20553;-63
2023/03/04 09:26:19;;;;;;;0.90;0.70;;;8.10;52.30;;;;;;4895848;29;20752;-62
2023/03/04 09:28:46;;;;;;;2.20;0.80;;;8.10;52.50;;;;;;4878630;29;20701;-63
2023/03/04 09:31:13;;;;;;;1.70;0.60;;;8.10;50.50;;;;;;4895890;29;20278;-63
2023/03/04 09:33:42;;;;;;;1.57;0.70;;;8.00;50.70;;;;;;4894153;29;20311;-62
2023/03/04 09:36:10;;;;;;;1.63;0.60;;;8.00;50.10;;;;;;4895877;29;20552;-62
2023/03/04 09:38:38;;;;;;;1.97;0.83;;;7.90;48.90;;;;;;4893299;29;20647;-64
2023/03/04 09:41:09;;;;;;;0.40;0.40;;;7.90;47.20;;;;;;4895180;29;20202;-63
2023/03/04 09:43:39;;;;;;;2.53;0.50;;;7.90;46.70;;;;;;4895379;29;20211;-63
2023/03/04 09:46:11;;;;;;;3.60;0.50;;;7.90;47.10;;;;;;4894105;29;20225;-63
2023/03/04 09:48:44;;;;;;;0.70;0.60;;;7.90;46.70;;;;;;4877634;29;20294;-62
2023/03/04 09:51:22;;;;;;;0.73;0.70;;;7.80;47.00;;;;;;4895606;29;20334;-62
2023/03/04 09:53:59;;;;;;;0.70;0.50;;;7.90;47.40;;;;;;4893314;29;20179;-62
2023/03/04 09:56:27;;;;;;;1.40;0.90;;;7.90;47.20;;;;;;4895871;29;20207;-63
2023/03/04 09:59:03;;;;;;;1.03;0.70;;;8.00;47.10;;;;;;4894550;29;20215;-63
2023/03/04 10:01:36;;;;;;;2.13;0.60;;;8.00;47.00;;;;;;4895450;29;20183;-63
2023/03/04 10:04:13;;;;;;;0.70;0.63;;;8.00;47.70;;;;;;4894280;29;20218;-63
2023/03/04 10:06:42;;;;;;;0.57;0.57;;;8.00;47.70;;;;;;4894900;29;20266;-63
2023/03/04 10:09:13;;;;;;;0.50;0.50;;;8.10;47.70;;;;;;4876640;29;20214;-63
2023/03/04 10:11:45;;;;;;;4.00;0.90;;;8.10;48.20;;;;;;4895631;29;20286;-63
2023/03/04 10:14:26;;;;;;;0.70;0.70;;;8.20;48.30;;;;;;4895009;29;20254;-63
2023/03/04 10:16:59;;;;;;;2.23;0.90;;;8.30;48.50;;;;;;4894492;29;20186;-63
2023/03/04 10:19:36;;;;;;;1.07;0.50;;;8.40;49.10;;;;;;4877980;29;20302;-63
2023/03/04 10:22:19;;;;;;;1.20;0.70;;;8.50;47.80;;;;;;4890467;29;20203;-63
2023/03/04 10:24:47;;;;;;;0.77;0.73;;;8.60;47.60;;;;;;4892667;29;20186;-63
2023/03/04 10:27:19;;;;;;;2.67;0.93;;;8.70;47.50;;;;;;4892788;29;20207;-63
2023/03/04 10:29:46;;;;;;;0.60;0.60;;;8.90;48.00;;;;;;4895464;29;20188;-63
2023/03/04 10:32:17;;;;;;;7.20;0.97;;;9.40;47.80;;;;;;4874671;29;20220;-63
2023/03/04 10:34:46;;;;;;;3.00;1.00;;;9.80;47.20;;;;;;4876235;29;20274;-63
2023/03/04 10:37:14;;;;;;;2.50;1.00;;;10.30;45.50;;;;;;4873486;29;20223;-63
2023/03/04 10:39:42;;;;;;;0.73;0.73;;;10.80;43.00;;;;;;4868615;29;20837;-63
2023/03/04 10:42:28;;;;;;;1.10;0.80;;;11.10;41.30;;;;;;4874541;29;20299;-63
2023/03/04 10:44:58;;;;;;;0.70;0.70;;;11.20;40.70;;;;;;4876342;29;20270;-63
2023/03/04 10:47:28;;;;;;;1.37;0.70;;;11.60;41.40;;;;;;4857216;29;20232;-63
2023/03/04 10:49:59;;;;;;;1.13;0.90;;;12.60;40.90;;;;;;4857748;29;20332;-62
2023/03/04 10:52:32;;;;;;;0.80;0.70;;;13.80;39.00;;;;;;4873680;29;20316;-62
2023/03/04 10:55:02;;;;;;;0.83;0.70;;;15.50;37.50;;;;;;4878754;29;20271;-63
2023/03/04 10:57:35;;;;;;;1.37;0.73;;;17.20;36.20;;;;;;4858318;29;20573;-62
2023/03/04 11:00:21;;;;;;;2.20;0.70;;;18.50;32.50;;;;;;4859167;29;20209;-63
2023/03/04 11:02:49;;;;;;;1.73;0.90;;;18.90;31.80;;;;;;4855371;29;20233;-63
2023/03/04 11:05:21;;;;;;;1.50;0.60;;;19.10;29.50;;;;;;4857802;29;20609;-62
2023/03/04 11:07:50;;;;;;;1.10;0.70;;;19.20;28.00;;;;;;4857114;29;20207;-63
2023/03/04 11:10:23;;;;;;;1.00;0.73;;;19.60;28.40;;;;;;4857502;29;20176;-63
2023/03/04 11:12:52;;;;;;;2.60;0.77;;;19.70;26.90;;;;;;4874637;29;20199;-62
2023/03/04 11:15:23;;;;;;;0.67;0.67;;;19.20;25.70;;;;;;4875655;29;20208;-62
2023/03/04 11:17:54;;;;;;;0.67;0.67;;;18.60;26.50;;;;;;4875766;29;20585;-63
2023/03/04 11:20:32;;;;;;;0.63;0.60;;;18.30;26.10;;;;;;4875588;29;20303;-63
2023/03/04 11:23:05;;;;;;;1.47;0.80;;;18.10;26.50;;;;;;4858601;29;20629;-62
2023/03/04 11:25:36;;;;;;;0.73;0.73;;;18.20;26.10;;;;;;4874839;29;20189;-62
2023/03/04 11:28:12;;;;;;;1.17;0.70;;;18.30;26.90;;;;;;4875342;29;20215;-63
2023/03/04 11:30:43;;;;;;;2.23;0.60;;;18.40;27.00;;;;;;4874894;29;20310;-63
2023/03/04 11:33:17;;;;;;;1.70;0.70;;;18.40;27.00;;;;;;4876167;29;20308;-62
2023/03/04 11:35:59;;;;;;;3.60;1.10;;;18.10;25.90;;;;;;4879089;29;20208;-62
2023/03/04 11:38:31;;;;;;;1.63;0.90;;;17.50;25.80;;;;;;4878796;29;20235;-63
2023/03/04 11:41:03;;;;;;;1.60;0.83;;;16.80;26.00;;;;;;4878024;29;20640;-63
2023/03/04 11:43:35;;;;;;;0.83;0.80;;;16.30;26.50;;;;;;4877858;29;20690;-63
2023/03/04 11:46:51;;;;;;;1.63;1.10;;;16.20;26.10;;;;;;4885479;29;20203;-63
2023/03/04 11:49:41;;;;;;;3.53;1.20;;;16.00;26.70;;;;;;4879010;29;20658;-63
2023/03/04 11:52:21;;;;;;;1.90;0.90;;;15.70;26.40;;;;;;4878072;29;20797;-63
2023/03/04 11:55:02;;;;;;;5.07;1.20;;;15.50;26.60;;;;;;4869542;29;20214;-63
2023/03/04 11:57:37;;;;;;;0.90;0.90;;;15.30;26.40;;;;;;4877884;29;20183;-63
2023/03/04 12:00:21;;;;;;;5.80;1.10;;;14.80;26.80;;;;;;4878100;29;20185;-63
2023/03/04 12:03:01;;;;;;;4.50;1.40;;;14.50;27.00;;;;;;4877616;29;20204;-63
2023/03/04 12:05:42;;;;;;;6.93;1.40;;;13.80;25.70;;;;;;4878854;29;20714;-62
2023/03/04 12:08:24;;;;;;;4.73;0.70;;;13.30;25.20;;;;;;4878554;29;20187;-62
2023/03/04 12:11:03;;;;;;;2.63;1.00;;;13.20;24.70;;;;;;4877952;29;20192;-62
2023/03/04 12:13:52;;;;;;;4.40;0.83;;;13.10;24.30;;;;;;4878301;29;20252;-64
2023/03/04 12:16:52;;;;;;;5.33;1.03;;;12.80;24.50;;;;;;4877813;29;20633;-63
2023/03/04 12:19:35;;;;;;;3.77;1.47;;;12.40;24.50;;;;;;4877295;29;20204;-63
2023/03/04 12:22:28;;;;;;;4.60;0.73;;;12.30;24.90;;;;;;4859001;29;20196;-62
2023/03/04 12:25:18;;;;;;;3.57;0.90;;;12.10;25.00;;;;;;4875075;29;20303;-62
2023/03/04 12:27:55;;;;;;;1.17;0.70;;;11.70;25.00;;;;;;4877266;29;20264;-61
2023/03/04 12:30:38;;;;;;;5.03;0.90;;;11.40;25.20;;;;;;4877572;29;20644;-62
2023/03/04 12:33:13;;;;;;;2.43;0.90;;;11.30;25.40;;;;;;4877281;29;20301;-63
2023/03/04 12:35:46;;;;;;;0.97;0.80;;;11.50;25.40;;;;;;4878036;29;20302;-63
2023/03/04 12:38:29;;;;;;;2.77;0.70;;;12.00;25.60;;;;;;4877859;29;20237;-63
2023/03/04 12:41:06;;;;;;;2.57;0.90;;;12.60;25.20;;;;;;4877220;29;20198;-62
2023/03/04 12:43:48;;;;;;;4.83;0.90;;;12.60;24.90;;;;;;4876988;29;20530;-62
2023/03/04 12:46:35;;;;;;;24.27;1.37;;;12.40;24.80;;;;;;4876749;29;20452;-62
2023/03/04 12:49:25;;;;;;;1.57;0.77;;;12.40;25.10;;;;;;4860699;29;20252;-62
2023/03/04 12:52:00;;;;;;;2.37;0.80;;;12.60;25.30;;;;;;4879070;29;20183;-63
2023/03/04 12:54:32;;;;;;;1.13;0.60;;;12.90;25.30;;;;;;4895902;29;20270;-63
2023/03/04 12:57:04;;;;;;;3.93;0.60;;;12.40;24.60;;;;;;4878783;29;20218;-62
2023/03/04 12:59:37;;;;;;;3.53;0.50;;;11.70;24.90;;;;;;4896237;29;20190;-63
2023/03/04 13:02:29;;;;;;;4.83;0.97;;;11.20;25.40;;;;;;4881464;29;20199;-63
2023/03/04 13:05:03;;;;;;;2.50;0.80;;;10.70;25.50;;;;;;4877312;29;20271;-62
2023/03/04 13:07:42;;;;;;;3.03;0.60;;;10.50;26.00;;;;;;4860654;29;20261;-63
2023/03/04 13:10:13;;;;;;;0.73;0.70;;;10.50;26.30;;;;;;4877066;29;20231;-63